sensor_id;sensor_type;location;lat;lon;timestamp;P1;durP1;ratioP1;P2;durP2;ratioP2
14526;SDS011;7350;51.208;4.238;2022-11-10T00:00:31;9.87;;;2.97;;
14526;SDS011;7350;51.208;4.238;2022-11-10T00:03:01;11.07;;;2.40;;
14526;SDS011;7350;51.208;4.238;2022-11-10T00:05:28;9.90;;;2.83;;
14526;SDS011;7350;51.208;4.238;2022-11-10T00:07:56;11.90;;;3.00;;
14526;SDS011;7350;51.208;4.238;2022-11-10T00:10:26;10.77;;;2.90;;
14526;SDS011;7350;51.208;4.238;2022-11-10T00:12:53;9.30;;;2.57;;
14526;SDS011;7350;51.208;4.238;2022-11-10T00:15:24;11.77;;;3.43;;
14526;SDS011;7350;51.208;4.238;2022-11-10T00:18:09;14.50;;;3.70;;
14526;SDS011;7350;51.208;4.238;2022-11-10T00:20:36;15.13;;;2.83;;
14526;SDS011;7350;51.208;4.238;2022-11-10T00:23:03;13.53;;;2.80;;
14526;SDS011;7350;51.208;4.238;2022-11-10T00:25:30;13.70;;;2.40;;
14526;SDS011;7350;51.208;4.238;2022-11-10T00:27:58;11.00;;;3.17;;
14526;SDS011;7350;51.208;4.238;2022-11-10T00:30:25;11.73;;;3.03;;
14526;SDS011;7350;51.208;4.238;2022-11-10T00:32:52;11.30;;;3.00;;
14526;SDS011;7350;51.208;4.238;2022-11-10T00:35:20;9.70;;;2.90;;
14526;SDS011;7350;51.208;4.238;2022-11-10T00:37:47;11.43;;;2.90;;
14526;SDS011;7350;51.208;4.238;2022-11-10T00:40:15;12.93;;;2.87;;
14526;SDS011;7350;51.208;4.238;2022-11-10T00:42:42;9.20;;;2.47;;
14526;SDS011;7350;51.208;4.238;2022-11-10T00:45:09;11.80;;;2.67;;
14526;SDS011;7350;51.208;4.238;2022-11-10T00:47:36;10.00;;;2.47;;
14526;SDS011;7350;51.208;4.238;2022-11-10T00:50:03;8.33;;;2.80;;
14526;SDS011;7350;51.208;4.238;2022-11-10T00:52:32;13.50;;;3.30;;
14526;SDS011;7350;51.208;4.238;2022-11-10T00:54:59;10.43;;;2.67;;
14526;SDS011;7350;51.208;4.238;2022-11-10T00:57:26;12.80;;;2.60;;
14526;SDS011;7350;51.208;4.238;2022-11-10T00:59:53;12.00;;;3.03;;
14526;SDS011;7350;51.208;4.238;2022-11-10T01:02:20;11.97;;;2.53;;
14526;SDS011;7350;51.208;4.238;2022-11-10T01:04:47;10.60;;;2.40;;
14526;SDS011;7350;51.208;4.238;2022-11-10T01:07:14;11.17;;;2.90;;
14526;SDS011;7350;51.208;4.238;2022-11-10T01:09:42;13.37;;;3.37;;
14526;SDS011;7350;51.208;4.238;2022-11-10T01:12:09;14.30;;;3.20;;
14526;SDS011;7350;51.208;4.238;2022-11-10T01:14:36;11.93;;;2.97;;
14526;SDS011;7350;51.208;4.238;2022-11-10T01:17:03;10.67;;;2.33;;
14526;SDS011;7350;51.208;4.238;2022-11-10T01:19:30;11.57;;;3.10;;
14526;SDS011;7350;51.208;4.238;2022-11-10T01:21:57;14.47;;;3.23;;
14526;SDS011;7350;51.208;4.238;2022-11-10T01:24:25;12.07;;;3.13;;
14526;SDS011;7350;51.208;4.238;2022-11-10T01:26:53;15.27;;;2.90;;
14526;SDS011;7350;51.208;4.238;2022-11-10T01:29:20;9.27;;;2.50;;
14526;SDS011;7350;51.208;4.238;2022-11-10T01:31:47;12.90;;;3.00;;
14526;SDS011;7350;51.208;4.238;2022-11-10T01:34:14;12.87;;;3.10;;
14526;SDS011;7350;51.208;4.238;2022-11-10T01:36:41;8.40;;;2.40;;
14526;SDS011;7350;51.208;4.238;2022-11-10T01:39:08;10.47;;;2.73;;
14526;SDS011;7350;51.208;4.238;2022-11-10T01:41:34;8.50;;;2.50;;
14526;SDS011;7350;51.208;4.238;2022-11-10T01:44:12;12.87;;;2.70;;
14526;SDS011;7350;51.208;4.238;2022-11-10T01:46:41;10.43;;;2.80;;
14526;SDS011;7350;51.208;4.238;2022-11-10T01:49:08;9.40;;;2.87;;
14526;SDS011;7350;51.208;4.238;2022-11-10T01:51:37;19.17;;;3.10;;
14526;SDS011;7350;51.208;4.238;2022-11-10T01:54:11;13.43;;;2.73;;
14526;SDS011;7350;51.208;4.238;2022-11-10T01:56:42;11.97;;;2.83;;
14526;SDS011;7350;51.208;4.238;2022-11-10T01:59:14;12.97;;;2.80;;
14526;SDS011;7350;51.208;4.238;2022-11-10T02:01:45;11.77;;;3.00;;
14526;SDS011;7350;51.208;4.238;2022-11-10T02:04:14;13.57;;;3.07;;
14526;SDS011;7350;51.208;4.238;2022-11-10T02:06:44;7.10;;;2.40;;
14526;SDS011;7350;51.208;4.238;2022-11-10T02:09:12;13.67;;;3.03;;
14526;SDS011;7350;51.208;4.238;2022-11-10T02:11:39;16.80;;;2.93;;
14526;SDS011;7350;51.208;4.238;2022-11-10T02:14:07;11.23;;;2.93;;
14526;SDS011;7350;51.208;4.238;2022-11-10T02:16:37;9.73;;;2.73;;
14526;SDS011;7350;51.208;4.238;2022-11-10T02:21:52;13.07;;;2.73;;
14526;SDS011;7350;51.208;4.238;2022-11-10T02:24:19;14.30;;;3.27;;
14526;SDS011;7350;51.208;4.238;2022-11-10T02:26:47;12.33;;;3.07;;
14526;SDS011;7350;51.208;4.238;2022-11-10T02:29:17;12.40;;;3.17;;
14526;SDS011;7350;51.208;4.238;2022-11-10T02:31:44;13.17;;;3.23;;
14526;SDS011;7350;51.208;4.238;2022-11-10T02:34:11;10.43;;;3.17;;
14526;SDS011;7350;51.208;4.238;2022-11-10T02:36:38;11.93;;;3.00;;
14526;SDS011;7350;51.208;4.238;2022-11-10T02:39:07;10.90;;;3.23;;
14526;SDS011;7350;51.208;4.238;2022-11-10T02:41:34;18.20;;;4.03;;
14526;SDS011;7350;51.208;4.238;2022-11-10T02:44:01;14.63;;;3.53;;
14526;SDS011;7350;51.208;4.238;2022-11-10T02:46:29;14.33;;;3.97;;
14526;SDS011;7350;51.208;4.238;2022-11-10T02:48:56;10.33;;;2.90;;
14526;SDS011;7350;51.208;4.238;2022-11-10T02:51:23;12.70;;;2.93;;
14526;SDS011;7350;51.208;4.238;2022-11-10T02:53:50;8.47;;;3.20;;
14526;SDS011;7350;51.208;4.238;2022-11-10T02:56:18;11.27;;;3.60;;
14526;SDS011;7350;51.208;4.238;2022-11-10T02:58:45;14.90;;;3.20;;
14526;SDS011;7350;51.208;4.238;2022-11-10T03:01:12;16.27;;;3.17;;
14526;SDS011;7350;51.208;4.238;2022-11-10T03:03:39;14.27;;;3.70;;
14526;SDS011;7350;51.208;4.238;2022-11-10T03:06:06;15.97;;;3.13;;
14526;SDS011;7350;51.208;4.238;2022-11-10T03:08:33;12.57;;;3.30;;
14526;SDS011;7350;51.208;4.238;2022-11-10T03:11:00;12.73;;;3.20;;
14526;SDS011;7350;51.208;4.238;2022-11-10T03:13:28;8.67;;;3.00;;
14526;SDS011;7350;51.208;4.238;2022-11-10T03:15:55;14.47;;;3.20;;
14526;SDS011;7350;51.208;4.238;2022-11-10T03:18:22;13.70;;;3.87;;
14526;SDS011;7350;51.208;4.238;2022-11-10T03:20:49;12.63;;;2.97;;
14526;SDS011;7350;51.208;4.238;2022-11-10T03:23:16;12.77;;;3.40;;
14526;SDS011;7350;51.208;4.238;2022-11-10T03:25:44;10.63;;;3.17;;
14526;SDS011;7350;51.208;4.238;2022-11-10T03:28:11;13.33;;;3.00;;
14526;SDS011;7350;51.208;4.238;2022-11-10T03:30:40;15.07;;;3.30;;
14526;SDS011;7350;51.208;4.238;2022-11-10T03:33:07;11.43;;;3.03;;
14526;SDS011;7350;51.208;4.238;2022-11-10T03:35:34;11.13;;;2.87;;
14526;SDS011;7350;51.208;4.238;2022-11-10T03:38:02;14.93;;;3.70;;
14526;SDS011;7350;51.208;4.238;2022-11-10T03:40:29;14.57;;;3.73;;
14526;SDS011;7350;51.208;4.238;2022-11-10T03:42:56;12.03;;;3.20;;
14526;SDS011;7350;51.208;4.238;2022-11-10T03:45:23;16.17;;;2.90;;
14526;SDS011;7350;51.208;4.238;2022-11-10T03:47:51;11.10;;;2.90;;
14526;SDS011;7350;51.208;4.238;2022-11-10T03:50:18;11.73;;;3.10;;
14526;SDS011;7350;51.208;4.238;2022-11-10T03:52:45;12.37;;;3.40;;
14526;SDS011;7350;51.208;4.238;2022-11-10T03:55:13;11.47;;;2.83;;
14526;SDS011;7350;51.208;4.238;2022-11-10T03:57:41;11.30;;;3.37;;
14526;SDS011;7350;51.208;4.238;2022-11-10T04:00:09;15.83;;;2.97;;
14526;SDS011;7350;51.208;4.238;2022-11-10T04:02:37;13.97;;;2.70;;
14526;SDS011;7350;51.208;4.238;2022-11-10T04:05:07;10.80;;;3.50;;
14526;SDS011;7350;51.208;4.238;2022-11-10T04:07:55;13.57;;;2.93;;
14526;SDS011;7350;51.208;4.238;2022-11-10T04:10:40;11.77;;;2.67;;
14526;SDS011;7350;51.208;4.238;2022-11-10T04:13:07;10.67;;;2.90;;
14526;SDS011;7350;51.208;4.238;2022-11-10T04:15:51;11.63;;;2.93;;
14526;SDS011;7350;51.208;4.238;2022-11-10T04:18:18;12.13;;;3.23;;
14526;SDS011;7350;51.208;4.238;2022-11-10T04:20:55;10.13;;;3.10;;
14526;SDS011;7350;51.208;4.238;2022-11-10T04:23:24;12.23;;;2.80;;
14526;SDS011;7350;51.208;4.238;2022-11-10T04:25:50;9.07;;;3.10;;
14526;SDS011;7350;51.208;4.238;2022-11-10T04:28:31;17.37;;;3.50;;
14526;SDS011;7350;51.208;4.238;2022-11-10T04:30:58;16.90;;;3.17;;
14526;SDS011;7350;51.208;4.238;2022-11-10T04:33:25;13.40;;;3.30;;
14526;SDS011;7350;51.208;4.238;2022-11-10T04:35:52;13.37;;;4.23;;
14526;SDS011;7350;51.208;4.238;2022-11-10T04:38:20;11.63;;;2.70;;
14526;SDS011;7350;51.208;4.238;2022-11-10T04:40:47;14.13;;;3.60;;
14526;SDS011;7350;51.208;4.238;2022-11-10T04:43:14;16.37;;;3.20;;
14526;SDS011;7350;51.208;4.238;2022-11-10T04:45:41;14.37;;;3.27;;
14526;SDS011;7350;51.208;4.238;2022-11-10T04:48:08;12.70;;;3.00;;
14526;SDS011;7350;51.208;4.238;2022-11-10T04:50:35;14.57;;;3.60;;
14526;SDS011;7350;51.208;4.238;2022-11-10T04:53:02;20.53;;;4.17;;
14526;SDS011;7350;51.208;4.238;2022-11-10T04:55:30;19.90;;;2.90;;
14526;SDS011;7350;51.208;4.238;2022-11-10T04:57:57;13.60;;;4.07;;
14526;SDS011;7350;51.208;4.238;2022-11-10T05:00:24;11.80;;;3.43;;
14526;SDS011;7350;51.208;4.238;2022-11-10T05:02:51;12.57;;;3.90;;
14526;SDS011;7350;51.208;4.238;2022-11-10T05:05:18;14.47;;;3.93;;
14526;SDS011;7350;51.208;4.238;2022-11-10T05:07:46;14.97;;;3.07;;
14526;SDS011;7350;51.208;4.238;2022-11-10T05:10:13;16.17;;;3.33;;
14526;SDS011;7350;51.208;4.238;2022-11-10T05:12:41;15.33;;;3.30;;
14526;SDS011;7350;51.208;4.238;2022-11-10T05:15:09;12.13;;;4.00;;
14526;SDS011;7350;51.208;4.238;2022-11-10T05:17:36;13.97;;;3.53;;
14526;SDS011;7350;51.208;4.238;2022-11-10T05:20:04;18.63;;;4.03;;
14526;SDS011;7350;51.208;4.238;2022-11-10T05:22:31;22.77;;;3.17;;
14526;SDS011;7350;51.208;4.238;2022-11-10T05:24:58;11.90;;;3.10;;
14526;SDS011;7350;51.208;4.238;2022-11-10T05:27:25;10.70;;;3.10;;
14526;SDS011;7350;51.208;4.238;2022-11-10T05:29:55;16.67;;;4.23;;
14526;SDS011;7350;51.208;4.238;2022-11-10T05:32:22;12.63;;;2.80;;
14526;SDS011;7350;51.208;4.238;2022-11-10T05:34:49;14.37;;;3.63;;
14526;SDS011;7350;51.208;4.238;2022-11-10T05:37:16;15.13;;;4.07;;
14526;SDS011;7350;51.208;4.238;2022-11-10T05:39:42;10.43;;;3.57;;
14526;SDS011;7350;51.208;4.238;2022-11-10T05:42:09;16.90;;;4.00;;
14526;SDS011;7350;51.208;4.238;2022-11-10T05:44:36;10.50;;;3.77;;
14526;SDS011;7350;51.208;4.238;2022-11-10T05:47:04;12.97;;;3.63;;
14526;SDS011;7350;51.208;4.238;2022-11-10T05:49:32;15.00;;;3.30;;
14526;SDS011;7350;51.208;4.238;2022-11-10T05:51:59;16.97;;;3.57;;
14526;SDS011;7350;51.208;4.238;2022-11-10T05:54:26;10.53;;;3.17;;
14526;SDS011;7350;51.208;4.238;2022-11-10T05:56:53;15.47;;;3.57;;
14526;SDS011;7350;51.208;4.238;2022-11-10T05:59:20;12.10;;;3.70;;
14526;SDS011;7350;51.208;4.238;2022-11-10T06:01:47;16.83;;;4.23;;
14526;SDS011;7350;51.208;4.238;2022-11-10T06:04:16;11.80;;;3.47;;
14526;SDS011;7350;51.208;4.238;2022-11-10T06:06:43;14.13;;;4.57;;
14526;SDS011;7350;51.208;4.238;2022-11-10T06:09:10;11.23;;;3.23;;
14526;SDS011;7350;51.208;4.238;2022-11-10T06:11:37;18.23;;;4.13;;
14526;SDS011;7350;51.208;4.238;2022-11-10T06:14:03;18.37;;;3.90;;
14526;SDS011;7350;51.208;4.238;2022-11-10T06:16:30;16.67;;;3.87;;
14526;SDS011;7350;51.208;4.238;2022-11-10T06:18:57;19.13;;;3.50;;
14526;SDS011;7350;51.208;4.238;2022-11-10T06:21:26;16.33;;;3.77;;
14526;SDS011;7350;51.208;4.238;2022-11-10T06:23:52;17.53;;;3.80;;
14526;SDS011;7350;51.208;4.238;2022-11-10T06:26:19;11.80;;;3.37;;
14526;SDS011;7350;51.208;4.238;2022-11-10T06:28:46;14.50;;;3.97;;
14526;SDS011;7350;51.208;4.238;2022-11-10T06:31:13;13.10;;;4.10;;
14526;SDS011;7350;51.208;4.238;2022-11-10T06:33:40;14.10;;;3.50;;
14526;SDS011;7350;51.208;4.238;2022-11-10T06:36:07;16.27;;;4.23;;
14526;SDS011;7350;51.208;4.238;2022-11-10T06:38:36;16.30;;;3.47;;
14526;SDS011;7350;51.208;4.238;2022-11-10T06:41:03;19.37;;;4.00;;
14526;SDS011;7350;51.208;4.238;2022-11-10T06:43:30;22.03;;;4.00;;
14526;SDS011;7350;51.208;4.238;2022-11-10T06:45:57;12.43;;;3.57;;
14526;SDS011;7350;51.208;4.238;2022-11-10T06:48:24;15.97;;;4.13;;
14526;SDS011;7350;51.208;4.238;2022-11-10T06:50:51;16.20;;;3.80;;
14526;SDS011;7350;51.208;4.238;2022-11-10T06:53:17;10.70;;;3.53;;
14526;SDS011;7350;51.208;4.238;2022-11-10T06:55:46;13.13;;;3.63;;
14526;SDS011;7350;51.208;4.238;2022-11-10T06:58:13;14.77;;;4.30;;
14526;SDS011;7350;51.208;4.238;2022-11-10T07:00:40;14.70;;;3.23;;
14526;SDS011;7350;51.208;4.238;2022-11-10T07:03:09;16.33;;;3.77;;
14526;SDS011;7350;51.208;4.238;2022-11-10T07:05:38;13.77;;;3.43;;
14526;SDS011;7350;51.208;4.238;2022-11-10T07:08:06;17.00;;;4.23;;
14526;SDS011;7350;51.208;4.238;2022-11-10T07:10:35;14.20;;;4.07;;
14526;SDS011;7350;51.208;4.238;2022-11-10T07:13:04;17.60;;;3.80;;
14526;SDS011;7350;51.208;4.238;2022-11-10T07:15:31;12.57;;;3.10;;
14526;SDS011;7350;51.208;4.238;2022-11-10T07:17:58;24.77;;;4.53;;
14526;SDS011;7350;51.208;4.238;2022-11-10T07:20:26;16.10;;;3.77;;
14526;SDS011;7350;51.208;4.238;2022-11-10T07:22:55;17.83;;;4.13;;
14526;SDS011;7350;51.208;4.238;2022-11-10T07:25:24;11.37;;;3.63;;
14526;SDS011;7350;51.208;4.238;2022-11-10T07:27:52;13.43;;;4.00;;
14526;SDS011;7350;51.208;4.238;2022-11-10T07:30:20;13.63;;;4.40;;
14526;SDS011;7350;51.208;4.238;2022-11-10T07:32:55;15.00;;;3.70;;
14526;SDS011;7350;51.208;4.238;2022-11-10T07:35:24;19.30;;;4.57;;
14526;SDS011;7350;51.208;4.238;2022-11-10T07:37:52;17.07;;;4.00;;
14526;SDS011;7350;51.208;4.238;2022-11-10T07:40:19;10.80;;;3.83;;
14526;SDS011;7350;51.208;4.238;2022-11-10T07:42:46;15.47;;;3.80;;
14526;SDS011;7350;51.208;4.238;2022-11-10T07:45:13;19.97;;;5.03;;
14526;SDS011;7350;51.208;4.238;2022-11-10T07:47:42;14.20;;;4.17;;
14526;SDS011;7350;51.208;4.238;2022-11-10T07:50:09;16.67;;;3.73;;
14526;SDS011;7350;51.208;4.238;2022-11-10T07:52:36;12.13;;;3.20;;
14526;SDS011;7350;51.208;4.238;2022-11-10T07:55:03;10.73;;;3.20;;
14526;SDS011;7350;51.208;4.238;2022-11-10T07:57:31;17.17;;;3.77;;
14526;SDS011;7350;51.208;4.238;2022-11-10T07:59:58;14.87;;;3.93;;
14526;SDS011;7350;51.208;4.238;2022-11-10T08:02:25;17.53;;;3.90;;
14526;SDS011;7350;51.208;4.238;2022-11-10T08:04:54;14.97;;;4.10;;
14526;SDS011;7350;51.208;4.238;2022-11-10T08:07:21;15.87;;;4.57;;
14526;SDS011;7350;51.208;4.238;2022-11-10T08:09:48;12.13;;;3.60;;
14526;SDS011;7350;51.208;4.238;2022-11-10T08:12:15;15.30;;;4.00;;
14526;SDS011;7350;51.208;4.238;2022-11-10T08:14:42;15.80;;;3.97;;
14526;SDS011;7350;51.208;4.238;2022-11-10T08:17:09;13.23;;;3.97;;
14526;SDS011;7350;51.208;4.238;2022-11-10T08:19:36;12.30;;;3.87;;
14526;SDS011;7350;51.208;4.238;2022-11-10T08:22:04;18.57;;;3.90;;
14526;SDS011;7350;51.208;4.238;2022-11-10T08:24:31;12.73;;;3.57;;
14526;SDS011;7350;51.208;4.238;2022-11-10T08:26:58;17.97;;;3.97;;
14526;SDS011;7350;51.208;4.238;2022-11-10T08:29:25;10.40;;;3.23;;
14526;SDS011;7350;51.208;4.238;2022-11-10T08:31:52;17.13;;;3.43;;
14526;SDS011;7350;51.208;4.238;2022-11-10T08:34:18;15.27;;;4.13;;
14526;SDS011;7350;51.208;4.238;2022-11-10T08:36:47;14.47;;;3.10;;
14526;SDS011;7350;51.208;4.238;2022-11-10T08:39:15;16.13;;;3.30;;
14526;SDS011;7350;51.208;4.238;2022-11-10T08:41:42;12.40;;;3.60;;
14526;SDS011;7350;51.208;4.238;2022-11-10T08:44:09;13.83;;;3.77;;
14526;SDS011;7350;51.208;4.238;2022-11-10T08:46:37;11.00;;;4.00;;
14526;SDS011;7350;51.208;4.238;2022-11-10T08:49:04;13.30;;;4.20;;
14526;SDS011;7350;51.208;4.238;2022-11-10T08:51:31;16.17;;;4.17;;
14526;SDS011;7350;51.208;4.238;2022-11-10T08:53:58;13.68;;;3.85;;
14526;SDS011;7350;51.208;4.238;2022-11-10T08:56:26;14.93;;;3.80;;
14526;SDS011;7350;51.208;4.238;2022-11-10T08:58:53;15.10;;;4.10;;
14526;SDS011;7350;51.208;4.238;2022-11-10T09:01:20;11.07;;;3.40;;
14526;SDS011;7350;51.208;4.238;2022-11-10T09:03:47;11.98;;;3.33;;
14526;SDS011;7350;51.208;4.238;2022-11-10T09:06:14;13.15;;;3.67;;
14526;SDS011;7350;51.208;4.238;2022-11-10T09:08:41;13.13;;;3.45;;
14526;SDS011;7350;51.208;4.238;2022-11-10T09:11:07;13.68;;;3.72;;
14526;SDS011;7350;51.208;4.238;2022-11-10T09:13:36;14.80;;;4.40;;
14526;SDS011;7350;51.208;4.238;2022-11-10T09:16:03;18.17;;;4.07;;
14526;SDS011;7350;51.208;4.238;2022-11-10T09:18:31;17.50;;;4.80;;
14526;SDS011;7350;51.208;4.238;2022-11-10T09:20:58;12.73;;;4.18;;
14526;SDS011;7350;51.208;4.238;2022-11-10T09:23:27;13.02;;;3.42;;
14526;SDS011;7350;51.208;4.238;2022-11-10T09:25:54;17.23;;;4.03;;
14526;SDS011;7350;51.208;4.238;2022-11-10T09:28:22;12.55;;;3.70;;
14526;SDS011;7350;51.208;4.238;2022-11-10T09:30:51;14.10;;;4.43;;
14526;SDS011;7350;51.208;4.238;2022-11-10T09:33:18;16.90;;;4.00;;
14526;SDS011;7350;51.208;4.238;2022-11-10T09:35:45;15.48;;;3.75;;
14526;SDS011;7350;51.208;4.238;2022-11-10T09:38:12;15.65;;;3.75;;
14526;SDS011;7350;51.208;4.238;2022-11-10T09:40:43;13.45;;;3.67;;
14526;SDS011;7350;51.208;4.238;2022-11-10T09:43:18;15.85;;;3.80;;
14526;SDS011;7350;51.208;4.238;2022-11-10T09:45:52;15.13;;;4.18;;
14526;SDS011;7350;51.208;4.238;2022-11-10T09:48:24;15.98;;;3.65;;
14526;SDS011;7350;51.208;4.238;2022-11-10T09:50:54;16.08;;;4.05;;
14526;SDS011;7350;51.208;4.238;2022-11-10T09:53:25;9.07;;;3.20;;
14526;SDS011;7350;51.208;4.238;2022-11-10T09:55:57;14.25;;;3.42;;
14526;SDS011;7350;51.208;4.238;2022-11-10T09:58:28;15.05;;;3.88;;
14526;SDS011;7350;51.208;4.238;2022-11-10T10:01:03;13.15;;;3.38;;
14526;SDS011;7350;51.208;4.238;2022-11-10T10:03:40;9.52;;;2.80;;
14526;SDS011;7350;51.208;4.238;2022-11-10T10:06:11;9.25;;;2.65;;
14526;SDS011;7350;51.208;4.238;2022-11-10T10:08:46;11.82;;;3.35;;
14526;SDS011;7350;51.208;4.238;2022-11-10T10:11:25;14.10;;;2.72;;
14526;SDS011;7350;51.208;4.238;2022-11-10T10:14:05;11.35;;;3.53;;
14526;SDS011;7350;51.208;4.238;2022-11-10T10:16:56;12.60;;;3.15;;
14526;SDS011;7350;51.208;4.238;2022-11-10T10:19:27;13.50;;;3.03;;
14526;SDS011;7350;51.208;4.238;2022-11-10T10:22:16;11.32;;;2.75;;
14526;SDS011;7350;51.208;4.238;2022-11-10T10:24:57;14.05;;;3.38;;
14526;SDS011;7350;51.208;4.238;2022-11-10T10:27:27;5.82;;;2.50;;
14526;SDS011;7350;51.208;4.238;2022-11-10T10:29:59;9.80;;;3.47;;
14526;SDS011;7350;51.208;4.238;2022-11-10T10:32:28;11.18;;;2.85;;
14526;SDS011;7350;51.208;4.238;2022-11-10T10:34:55;13.18;;;3.20;;
14526;SDS011;7350;51.208;4.238;2022-11-10T10:37:23;9.25;;;3.25;;
14526;SDS011;7350;51.208;4.238;2022-11-10T10:39:53;10.50;;;3.03;;
14526;SDS011;7350;51.208;4.238;2022-11-10T10:42:27;10.73;;;3.38;;
14526;SDS011;7350;51.208;4.238;2022-11-10T10:45:15;11.35;;;3.15;;
14526;SDS011;7350;51.208;4.238;2022-11-10T10:47:46;10.65;;;3.00;;
14526;SDS011;7350;51.208;4.238;2022-11-10T10:50:18;11.10;;;3.83;;
14526;SDS011;7350;51.208;4.238;2022-11-10T10:53:09;6.70;;;2.85;;
14526;SDS011;7350;51.208;4.238;2022-11-10T10:55:43;10.45;;;3.38;;
14526;SDS011;7350;51.208;4.238;2022-11-10T10:58:20;9.35;;;2.75;;
14526;SDS011;7350;51.208;4.238;2022-11-10T11:00:49;8.57;;;2.90;;
14526;SDS011;7350;51.208;4.238;2022-11-10T11:03:25;14.98;;;3.63;;
14526;SDS011;7350;51.208;4.238;2022-11-10T11:06:01;11.45;;;3.00;;
14526;SDS011;7350;51.208;4.238;2022-11-10T11:08:31;9.43;;;2.88;;
14526;SDS011;7350;51.208;4.238;2022-11-10T11:11:05;9.82;;;2.97;;
14526;SDS011;7350;51.208;4.238;2022-11-10T11:13:34;8.15;;;2.60;;
14526;SDS011;7350;51.208;4.238;2022-11-10T11:16:02;9.82;;;2.65;;
14526;SDS011;7350;51.208;4.238;2022-11-10T11:18:33;14.38;;;3.55;;
14526;SDS011;7350;51.208;4.238;2022-11-10T11:21:07;9.52;;;3.03;;
14526;SDS011;7350;51.208;4.238;2022-11-10T11:23:52;9.57;;;2.45;;
14526;SDS011;7350;51.208;4.238;2022-11-10T11:26:42;11.05;;;2.85;;
14526;SDS011;7350;51.208;4.238;2022-11-10T11:29:21;10.00;;;3.17;;
14526;SDS011;7350;51.208;4.238;2022-11-10T11:32:03;8.63;;;3.13;;
14526;SDS011;7350;51.208;4.238;2022-11-10T11:34:45;7.30;;;2.58;;
14526;SDS011;7350;51.208;4.238;2022-11-10T11:37:23;11.90;;;2.97;;
14526;SDS011;7350;51.208;4.238;2022-11-10T11:39:57;7.60;;;2.10;;
14526;SDS011;7350;51.208;4.238;2022-11-10T11:42:40;8.05;;;2.45;;
14526;SDS011;7350;51.208;4.238;2022-11-10T11:45:22;7.03;;;2.63;;
14526;SDS011;7350;51.208;4.238;2022-11-10T11:48:01;11.40;;;2.60;;
14526;SDS011;7350;51.208;4.238;2022-11-10T11:50:47;5.70;;;2.05;;
14526;SDS011;7350;51.208;4.238;2022-11-10T11:53:23;10.93;;;2.92;;
14526;SDS011;7350;51.208;4.238;2022-11-10T11:56:05;8.32;;;2.40;;
14526;SDS011;7350;51.208;4.238;2022-11-10T11:58:43;9.70;;;2.50;;
14526;SDS011;7350;51.208;4.238;2022-11-10T12:01:15;11.77;;;2.38;;
14526;SDS011;7350;51.208;4.238;2022-11-10T12:06:53;8.30;;;2.50;;
14526;SDS011;7350;51.208;4.238;2022-11-10T12:09:32;7.97;;;2.85;;
14526;SDS011;7350;51.208;4.238;2022-11-10T12:12:09;8.00;;;2.17;;
14526;SDS011;7350;51.208;4.238;2022-11-10T12:14:57;8.85;;;2.50;;
14526;SDS011;7350;51.208;4.238;2022-11-10T12:17:31;7.57;;;2.30;;
14526;SDS011;7350;51.208;4.238;2022-11-10T12:20:06;8.10;;;2.33;;
14526;SDS011;7350;51.208;4.238;2022-11-10T12:22:48;9.02;;;2.15;;
14526;SDS011;7350;51.208;4.238;2022-11-10T12:25:25;7.63;;;2.30;;
14526;SDS011;7350;51.208;4.238;2022-11-10T12:27:58;6.88;;;2.38;;
14526;SDS011;7350;51.208;4.238;2022-11-10T12:30:30;9.90;;;2.22;;
14526;SDS011;7350;51.208;4.238;2022-11-10T12:33:00;9.23;;;2.50;;
14526;SDS011;7350;51.208;4.238;2022-11-10T12:35:31;6.95;;;1.90;;
14526;SDS011;7350;51.208;4.238;2022-11-10T12:38:04;7.70;;;2.08;;
14526;SDS011;7350;51.208;4.238;2022-11-10T12:40:37;10.45;;;2.00;;
14526;SDS011;7350;51.208;4.238;2022-11-10T12:43:10;7.60;;;2.22;;
14526;SDS011;7350;51.208;4.238;2022-11-10T12:45:44;9.00;;;2.20;;
14526;SDS011;7350;51.208;4.238;2022-11-10T12:48:14;6.80;;;2.20;;
14526;SDS011;7350;51.208;4.238;2022-11-10T12:50:44;7.10;;;2.28;;
14526;SDS011;7350;51.208;4.238;2022-11-10T12:53:20;12.82;;;2.45;;
14526;SDS011;7350;51.208;4.238;2022-11-10T12:55:51;6.40;;;1.63;;
14526;SDS011;7350;51.208;4.238;2022-11-10T12:58:20;9.20;;;2.28;;
14526;SDS011;7350;51.208;4.238;2022-11-10T13:00:53;7.13;;;1.90;;
14526;SDS011;7350;51.208;4.238;2022-11-10T13:03:26;4.65;;;1.58;;
14526;SDS011;7350;51.208;4.238;2022-11-10T13:05:56;7.88;;;1.90;;
14526;SDS011;7350;51.208;4.238;2022-11-10T13:08:27;7.45;;;1.67;;
14526;SDS011;7350;51.208;4.238;2022-11-10T13:10:59;5.35;;;1.50;;
14526;SDS011;7350;51.208;4.238;2022-11-10T13:13:29;5.88;;;1.30;;
14526;SDS011;7350;51.208;4.238;2022-11-10T13:16:06;7.90;;;1.70;;
14526;SDS011;7350;51.208;4.238;2022-11-10T13:24:35;8.85;;;1.45;;
14526;SDS011;7350;51.208;4.238;2022-11-10T13:27:04;4.28;;;1.17;;
14526;SDS011;7350;51.208;4.238;2022-11-10T13:32:25;5.85;;;1.30;;
14526;SDS011;7350;51.208;4.238;2022-11-10T13:34:54;6.35;;;1.50;;
14526;SDS011;7350;51.208;4.238;2022-11-10T13:38:17;4.55;;;1.30;;
14526;SDS011;7350;51.208;4.238;2022-11-10T13:41:12;3.75;;;1.30;;
14526;SDS011;7350;51.208;4.238;2022-11-10T13:43:50;4.22;;;1.55;;
14526;SDS011;7350;51.208;4.238;2022-11-10T13:46:19;5.50;;;1.58;;
14526;SDS011;7350;51.208;4.238;2022-11-10T13:51:54;4.70;;;1.75;;
14526;SDS011;7350;51.208;4.238;2022-11-10T13:54:48;4.47;;;1.60;;
14526;SDS011;7350;51.208;4.238;2022-11-10T13:57:25;5.68;;;1.50;;
14526;SDS011;7350;51.208;4.238;2022-11-10T13:59:55;4.05;;;1.30;;
14526;SDS011;7350;51.208;4.238;2022-11-10T14:02:47;4.75;;;1.33;;
14526;SDS011;7350;51.208;4.238;2022-11-10T14:08:28;6.03;;;1.40;;
14526;SDS011;7350;51.208;4.238;2022-11-10T14:11:12;6.85;;;1.23;;
14526;SDS011;7350;51.208;4.238;2022-11-10T14:13:45;7.95;;;1.55;;
14526;SDS011;7350;51.208;4.238;2022-11-10T14:16:18;6.95;;;1.40;;
14526;SDS011;7350;51.208;4.238;2022-11-10T14:18:57;6.68;;;1.33;;
14526;SDS011;7350;51.208;4.238;2022-11-10T14:21:29;4.95;;;1.30;;
14526;SDS011;7350;51.208;4.238;2022-11-10T14:24:03;4.63;;;1.92;;
14526;SDS011;7350;51.208;4.238;2022-11-10T14:26:36;5.63;;;1.70;;
14526;SDS011;7350;51.208;4.238;2022-11-10T14:29:23;6.00;;;1.80;;
14526;SDS011;7350;51.208;4.238;2022-11-10T14:32:01;6.82;;;1.80;;
14526;SDS011;7350;51.208;4.238;2022-11-10T14:34:30;7.97;;;2.42;;
14526;SDS011;7350;51.208;4.238;2022-11-10T14:37:00;6.30;;;1.23;;
14526;SDS011;7350;51.208;4.238;2022-11-10T14:39:29;4.93;;;1.80;;
14526;SDS011;7350;51.208;4.238;2022-11-10T14:41:58;4.25;;;1.27;;
14526;SDS011;7350;51.208;4.238;2022-11-10T14:44:29;8.15;;;1.77;;
14526;SDS011;7350;51.208;4.238;2022-11-10T14:47:11;6.75;;;1.85;;
14526;SDS011;7350;51.208;4.238;2022-11-10T14:50:01;4.57;;;1.55;;
14526;SDS011;7350;51.208;4.238;2022-11-10T14:52:35;4.78;;;1.50;;
14526;SDS011;7350;51.208;4.238;2022-11-10T14:55:05;7.22;;;1.98;;
14526;SDS011;7350;51.208;4.238;2022-11-10T14:57:35;6.05;;;1.67;;
14526;SDS011;7350;51.208;4.238;2022-11-10T15:00:06;3.60;;;1.48;;
14526;SDS011;7350;51.208;4.238;2022-11-10T15:02:39;7.55;;;1.85;;
14526;SDS011;7350;51.208;4.238;2022-11-10T15:05:07;4.68;;;1.50;;
14526;SDS011;7350;51.208;4.238;2022-11-10T15:07:38;5.72;;;1.73;;
14526;SDS011;7350;51.208;4.238;2022-11-10T15:10:10;6.30;;;1.50;;
14526;SDS011;7350;51.208;4.238;2022-11-10T15:12:40;7.30;;;1.80;;
14526;SDS011;7350;51.208;4.238;2022-11-10T15:15:17;5.97;;;1.77;;
14526;SDS011;7350;51.208;4.238;2022-11-10T15:17:47;5.95;;;1.83;;
14526;SDS011;7350;51.208;4.238;2022-11-10T15:20:25;6.45;;;2.33;;
14526;SDS011;7350;51.208;4.238;2022-11-10T15:22:55;8.00;;;2.53;;
14526;SDS011;7350;51.208;4.238;2022-11-10T15:25:24;7.07;;;2.15;;
14526;SDS011;7350;51.208;4.238;2022-11-10T15:27:59;5.43;;;2.10;;
14526;SDS011;7350;51.208;4.238;2022-11-10T15:30:29;10.00;;;2.00;;
14526;SDS011;7350;51.208;4.238;2022-11-10T15:32:56;7.53;;;1.95;;